sensor_id;sensor_type;location;lat;lon;timestamp;P1;durP1;ratioP1;P2;durP2;ratioP2
77055;SDS011;67471;44.918;8.614;2024-01-10T00:02:48;12.43;;;5.75;;
77055;SDS011;67471;44.918;8.614;2024-01-10T00:05:52;12.90;;;4.70;;
77055;SDS011;67471;44.918;8.614;2024-01-10T00:08:56;13.63;;;5.03;;
77055;SDS011;67471;44.918;8.614;2024-01-10T00:12:00;11.13;;;5.38;;
77055;SDS011;67471;44.918;8.614;2024-01-10T00:15:04;9.85;;;5.10;;
77055;SDS011;67471;44.918;8.614;2024-01-10T00:18:09;11.60;;;5.22;;
77055;SDS011;67471;44.918;8.614;2024-01-10T00:21:13;10.77;;;5.05;;
77055;SDS011;67471;44.918;8.614;2024-01-10T00:24:17;9.10;;;4.93;;
77055;SDS011;67471;44.918;8.614;2024-01-10T00:27:21;11.32;;;4.82;;
77055;SDS011;67471;44.918;8.614;2024-01-10T00:30:25;14.98;;;5.57;;
77055;SDS011;67471;44.918;8.614;2024-01-10T00:33:29;11.55;;;5.60;;
77055;SDS011;67471;44.918;8.614;2024-01-10T00:36:33;18.63;;;6.45;;
77055;SDS011;67471;44.918;8.614;2024-01-10T00:39:37;12.73;;;5.70;;
77055;SDS011;67471;44.918;8.614;2024-01-10T00:42:41;14.23;;;6.32;;
77055;SDS011;67471;44.918;8.614;2024-01-10T00:45:45;18.77;;;6.10;;
77055;SDS011;67471;44.918;8.614;2024-01-10T00:48:48;13.65;;;6.00;;
77055;SDS011;67471;44.918;8.614;2024-01-10T00:51:52;13.18;;;6.10;;
77055;SDS011;67471;44.918;8.614;2024-01-10T00:54:56;11.80;;;6.32;;
77055;SDS011;67471;44.918;8.614;2024-01-10T00:57:59;12.73;;;6.15;;
77055;SDS011;67471;44.918;8.614;2024-01-10T01:01:03;12.35;;;6.32;;
77055;SDS011;67471;44.918;8.614;2024-01-10T01:04:07;13.57;;;6.75;;
77055;SDS011;67471;44.918;8.614;2024-01-10T01:07:11;10.57;;;5.85;;
77055;SDS011;67471;44.918;8.614;2024-01-10T01:10:15;10.75;;;5.55;;
77055;SDS011;67471;44.918;8.614;2024-01-10T01:13:18;13.02;;;5.93;;
77055;SDS011;67471;44.918;8.614;2024-01-10T01:16:22;15.60;;;5.70;;
77055;SDS011;67471;44.918;8.614;2024-01-10T01:19:26;13.63;;;5.47;;
77055;SDS011;67471;44.918;8.614;2024-01-10T01:22:30;13.50;;;5.93;;
77055;SDS011;67471;44.918;8.614;2024-01-10T01:25:37;12.55;;;5.82;;
77055;SDS011;67471;44.918;8.614;2024-01-10T01:28:41;14.55;;;5.65;;
77055;SDS011;67471;44.918;8.614;2024-01-10T01:31:45;11.55;;;5.93;;
77055;SDS011;67471;44.918;8.614;2024-01-10T01:34:48;16.60;;;5.97;;
77055;SDS011;67471;44.918;8.614;2024-01-10T01:37:52;14.20;;;5.95;;
77055;SDS011;67471;44.918;8.614;2024-01-10T01:40:55;11.90;;;6.35;;
77055;SDS011;67471;44.918;8.614;2024-01-10T01:43:59;12.68;;;6.43;;
77055;SDS011;67471;44.918;8.614;2024-01-10T01:47:03;14.02;;;6.82;;
77055;SDS011;67471;44.918;8.614;2024-01-10T01:50:07;15.48;;;5.97;;
77055;SDS011;67471;44.918;8.614;2024-01-10T01:53:12;17.60;;;9.93;;
77055;SDS011;67471;44.918;8.614;2024-01-10T01:56:17;15.70;;;8.70;;
77055;SDS011;67471;44.918;8.614;2024-01-10T01:59:21;15.07;;;8.35;;
77055;SDS011;67471;44.918;8.614;2024-01-10T02:02:24;14.95;;;7.53;;
77055;SDS011;67471;44.918;8.614;2024-01-10T02:05:28;13.88;;;6.97;;
77055;SDS011;67471;44.918;8.614;2024-01-10T02:08:33;13.90;;;7.18;;
77055;SDS011;67471;44.918;8.614;2024-01-10T02:11:37;14.32;;;7.30;;
77055;SDS011;67471;44.918;8.614;2024-01-10T02:14:41;15.02;;;7.03;;
77055;SDS011;67471;44.918;8.614;2024-01-10T02:17:45;15.70;;;7.60;;
77055;SDS011;67471;44.918;8.614;2024-01-10T02:20:49;20.35;;;7.25;;
77055;SDS011;67471;44.918;8.614;2024-01-10T02:23:53;15.35;;;8.43;;
77055;SDS011;67471;44.918;8.614;2024-01-10T02:26:57;14.05;;;7.20;;
77055;SDS011;67471;44.918;8.614;2024-01-10T02:30:04;14.90;;;6.78;;
77055;SDS011;67471;44.918;8.614;2024-01-10T02:33:09;16.95;;;7.28;;
77055;SDS011;67471;44.918;8.614;2024-01-10T02:36:12;14.18;;;7.03;;
77055;SDS011;67471;44.918;8.614;2024-01-10T02:39:16;20.38;;;6.85;;
77055;SDS011;67471;44.918;8.614;2024-01-10T02:42:20;18.80;;;7.50;;
77055;SDS011;67471;44.918;8.614;2024-01-10T02:45:23;15.57;;;6.85;;
77055;SDS011;67471;44.918;8.614;2024-01-10T02:48:27;14.25;;;8.07;;
77055;SDS011;67471;44.918;8.614;2024-01-10T02:51:31;21.00;;;9.60;;
77055;SDS011;67471;44.918;8.614;2024-01-10T02:54:35;17.48;;;10.02;;
77055;SDS011;67471;44.918;8.614;2024-01-10T02:57:39;19.50;;;7.82;;
77055;SDS011;67471;44.918;8.614;2024-01-10T03:00:43;14.50;;;7.60;;
77055;SDS011;67471;44.918;8.614;2024-01-10T03:03:46;14.90;;;7.53;;
77055;SDS011;67471;44.918;8.614;2024-01-10T03:06:50;16.42;;;7.32;;
77055;SDS011;67471;44.918;8.614;2024-01-10T03:09:54;12.73;;;7.53;;
77055;SDS011;67471;44.918;8.614;2024-01-10T03:12:57;14.75;;;7.90;;
77055;SDS011;67471;44.918;8.614;2024-01-10T03:16:01;16.63;;;8.30;;
77055;SDS011;67471;44.918;8.614;2024-01-10T03:19:05;17.55;;;8.35;;
77055;SDS011;67471;44.918;8.614;2024-01-10T03:22:09;16.33;;;8.05;;
77055;SDS011;67471;44.918;8.614;2024-01-10T03:25:14;13.48;;;8.15;;
77055;SDS011;67471;44.918;8.614;2024-01-10T03:28:21;14.77;;;8.45;;
77055;SDS011;67471;44.918;8.614;2024-01-10T03:31:25;18.40;;;8.77;;
77055;SDS011;67471;44.918;8.614;2024-01-10T03:34:28;19.35;;;10.00;;
77055;SDS011;67471;44.918;8.614;2024-01-10T03:37:32;16.23;;;9.52;;
77055;SDS011;67471;44.918;8.614;2024-01-10T03:40:36;22.67;;;10.02;;
77055;SDS011;67471;44.918;8.614;2024-01-10T03:43:41;19.92;;;9.63;;
77055;SDS011;67471;44.918;8.614;2024-01-10T03:46:45;17.77;;;9.43;;
77055;SDS011;67471;44.918;8.614;2024-01-10T03:49:48;16.70;;;8.27;;
77055;SDS011;67471;44.918;8.614;2024-01-10T03:52:52;19.58;;;8.85;;
77055;SDS011;67471;44.918;8.614;2024-01-10T03:55:56;17.73;;;9.38;;
77055;SDS011;67471;44.918;8.614;2024-01-10T03:59:00;20.38;;;8.73;;
77055;SDS011;67471;44.918;8.614;2024-01-10T04:02:04;17.77;;;9.40;;
77055;SDS011;67471;44.918;8.614;2024-01-10T04:05:08;19.10;;;10.45;;
77055;SDS011;67471;44.918;8.614;2024-01-10T04:08:13;15.13;;;9.60;;
77055;SDS011;67471;44.918;8.614;2024-01-10T04:11:17;18.25;;;9.02;;
77055;SDS011;67471;44.918;8.614;2024-01-10T04:14:21;19.60;;;9.75;;
77055;SDS011;67471;44.918;8.614;2024-01-10T04:17:25;18.00;;;9.25;;
77055;SDS011;67471;44.918;8.614;2024-01-10T04:20:29;19.38;;;9.88;;
77055;SDS011;67471;44.918;8.614;2024-01-10T04:23:32;17.30;;;8.98;;
77055;SDS011;67471;44.918;8.614;2024-01-10T04:26:37;14.13;;;8.25;;
77055;SDS011;67471;44.918;8.614;2024-01-10T04:29:40;18.90;;;8.70;;
77055;SDS011;67471;44.918;8.614;2024-01-10T04:32:44;21.00;;;10.23;;
77055;SDS011;67471;44.918;8.614;2024-01-10T04:35:48;20.60;;;9.65;;
77055;SDS011;67471;44.918;8.614;2024-01-10T04:38:52;16.65;;;10.00;;
77055;SDS011;67471;44.918;8.614;2024-01-10T04:41:55;24.23;;;9.52;;
77055;SDS011;67471;44.918;8.614;2024-01-10T04:44:59;15.30;;;8.30;;
77055;SDS011;67471;44.918;8.614;2024-01-10T04:48:03;15.32;;;8.68;;
77055;SDS011;67471;44.918;8.614;2024-01-10T04:51:07;19.90;;;9.30;;
77055;SDS011;67471;44.918;8.614;2024-01-10T04:54:10;15.05;;;8.55;;
77055;SDS011;67471;44.918;8.614;2024-01-10T04:57:15;18.23;;;9.73;;
77055;SDS011;67471;44.918;8.614;2024-01-10T05:00:19;16.33;;;8.48;;
77055;SDS011;67471;44.918;8.614;2024-01-10T05:03:23;17.27;;;8.82;;
77055;SDS011;67471;44.918;8.614;2024-01-10T05:06:26;13.25;;;7.82;;
77055;SDS011;67471;44.918;8.614;2024-01-10T05:09:30;17.88;;;8.52;;
77055;SDS011;67471;44.918;8.614;2024-01-10T05:12:34;14.90;;;8.05;;
77055;SDS011;67471;44.918;8.614;2024-01-10T05:15:38;13.45;;;7.47;;
77055;SDS011;67471;44.918;8.614;2024-01-10T05:18:42;13.85;;;7.95;;
77055;SDS011;67471;44.918;8.614;2024-01-10T05:21:45;12.73;;;7.45;;
77055;SDS011;67471;44.918;8.614;2024-01-10T05:24:49;18.52;;;7.93;;
77055;SDS011;67471;44.918;8.614;2024-01-10T05:27:53;15.60;;;8.13;;
77055;SDS011;67471;44.918;8.614;2024-01-10T05:30:57;15.57;;;7.65;;
77055;SDS011;67471;44.918;8.614;2024-01-10T05:34:02;17.27;;;7.63;;
77055;SDS011;67471;44.918;8.614;2024-01-10T05:37:05;15.05;;;7.20;;
77055;SDS011;67471;44.918;8.614;2024-01-10T05:40:09;16.70;;;8.40;;
77055;SDS011;67471;44.918;8.614;2024-01-10T05:43:13;17.98;;;9.10;;
77055;SDS011;67471;44.918;8.614;2024-01-10T05:46:18;19.98;;;8.60;;
77055;SDS011;67471;44.918;8.614;2024-01-10T05:49:23;16.35;;;8.25;;
77055;SDS011;67471;44.918;8.614;2024-01-10T05:52:27;16.02;;;8.05;;
77055;SDS011;67471;44.918;8.614;2024-01-10T05:55:30;19.42;;;9.15;;
77055;SDS011;67471;44.918;8.614;2024-01-10T05:58:34;17.73;;;7.93;;
77055;SDS011;67471;44.918;8.614;2024-01-10T06:01:38;17.83;;;8.60;;
77055;SDS011;67471;44.918;8.614;2024-01-10T06:04:42;16.02;;;8.20;;
77055;SDS011;67471;44.918;8.614;2024-01-10T06:07:46;15.65;;;8.57;;
77055;SDS011;67471;44.918;8.614;2024-01-10T06:10:51;17.27;;;9.07;;
77055;SDS011;67471;44.918;8.614;2024-01-10T06:13:55;15.52;;;8.48;;
77055;SDS011;67471;44.918;8.614;2024-01-10T06:16:58;13.70;;;8.57;;
77055;SDS011;67471;44.918;8.614;2024-01-10T06:20:04;17.38;;;8.23;;
77055;SDS011;67471;44.918;8.614;2024-01-10T06:23:10;16.05;;;9.30;;
77055;SDS011;67471;44.918;8.614;2024-01-10T06:26:14;18.10;;;8.50;;
77055;SDS011;67471;44.918;8.614;2024-01-10T06:29:18;15.63;;;7.80;;
77055;SDS011;67471;44.918;8.614;2024-01-10T06:32:22;16.92;;;8.02;;
77055;SDS011;67471;44.918;8.614;2024-01-10T06:35:26;18.20;;;7.82;;
77055;SDS011;67471;44.918;8.614;2024-01-10T06:38:29;16.90;;;8.35;;
77055;SDS011;67471;44.918;8.614;2024-01-10T06:41:33;18.10;;;7.68;;
77055;SDS011;67471;44.918;8.614;2024-01-10T06:44:37;15.60;;;7.70;;
77055;SDS011;67471;44.918;8.614;2024-01-10T06:47:41;14.65;;;7.13;;
77055;SDS011;67471;44.918;8.614;2024-01-10T06:50:45;17.42;;;7.80;;
77055;SDS011;67471;44.918;8.614;2024-01-10T06:53:49;12.30;;;7.22;;
77055;SDS011;67471;44.918;8.614;2024-01-10T06:56:52;15.75;;;7.05;;
77055;SDS011;67471;44.918;8.614;2024-01-10T06:59:56;15.82;;;6.85;;
77055;SDS011;67471;44.918;8.614;2024-01-10T07:03:03;19.27;;;7.68;;
77055;SDS011;67471;44.918;8.614;2024-01-10T07:06:07;12.02;;;6.82;;
77055;SDS011;67471;44.918;8.614;2024-01-10T07:09:11;19.10;;;8.13;;
77055;SDS011;67471;44.918;8.614;2024-01-10T07:12:15;11.93;;;6.72;;
77055;SDS011;67471;44.918;8.614;2024-01-10T07:15:19;18.33;;;8.48;;
77055;SDS011;67471;44.918;8.614;2024-01-10T07:18:23;14.82;;;6.47;;
77055;SDS011;67471;44.918;8.614;2024-01-10T07:21:27;13.38;;;6.82;;
77055;SDS011;67471;44.918;8.614;2024-01-10T07:24:31;13.35;;;7.22;;
77055;SDS011;67471;44.918;8.614;2024-01-10T07:27:34;16.48;;;7.38;;
77055;SDS011;67471;44.918;8.614;2024-01-10T07:30:40;18.98;;;7.30;;
77055;SDS011;67471;44.918;8.614;2024-01-10T07:33:47;14.27;;;7.75;;
77055;SDS011;67471;44.918;8.614;2024-01-10T07:36:50;15.70;;;8.45;;
77055;SDS011;67471;44.918;8.614;2024-01-10T07:39:54;17.70;;;7.65;;
77055;SDS011;67471;44.918;8.614;2024-01-10T07:43:00;19.02;;;7.60;;
77055;SDS011;67471;44.918;8.614;2024-01-10T07:46:03;16.05;;;7.97;;
77055;SDS011;67471;44.918;8.614;2024-01-10T07:49:07;13.10;;;7.13;;
77055;SDS011;67471;44.918;8.614;2024-01-10T07:52:12;14.02;;;7.53;;
77055;SDS011;67471;44.918;8.614;2024-01-10T07:55:15;15.68;;;7.65;;
77055;SDS011;67471;44.918;8.614;2024-01-10T07:58:19;14.27;;;7.53;;
77055;SDS011;67471;44.918;8.614;2024-01-10T08:01:23;16.13;;;7.80;;
77055;SDS011;67471;44.918;8.614;2024-01-10T08:04:27;18.80;;;8.68;;
77055;SDS011;67471;44.918;8.614;2024-01-10T08:07:31;15.55;;;7.43;;
77055;SDS011;67471;44.918;8.614;2024-01-10T08:10:36;15.18;;;8.07;;
77055;SDS011;67471;44.918;8.614;2024-01-10T08:13:40;18.58;;;7.63;;
77055;SDS011;67471;44.918;8.614;2024-01-10T08:16:44;22.25;;;7.97;;
77055;SDS011;67471;44.918;8.614;2024-01-10T08:19:47;13.73;;;7.88;;
77055;SDS011;67471;44.918;8.614;2024-01-10T08:22:51;13.57;;;7.43;;
77055;SDS011;67471;44.918;8.614;2024-01-10T08:25:56;12.82;;;7.30;;
77055;SDS011;67471;44.918;8.614;2024-01-10T08:29:00;18.75;;;8.00;;
77055;SDS011;67471;44.918;8.614;2024-01-10T08:32:04;14.75;;;7.60;;
77055;SDS011;67471;44.918;8.614;2024-01-10T08:35:08;14.05;;;7.30;;
77055;SDS011;67471;44.918;8.614;2024-01-10T08:38:12;19.65;;;8.55;;
77055;SDS011;67471;44.918;8.614;2024-01-10T08:41:15;13.32;;;7.68;;
77055;SDS011;67471;44.918;8.614;2024-01-10T08:44:19;17.70;;;9.30;;
77055;SDS011;67471;44.918;8.614;2024-01-10T08:47:24;15.32;;;8.13;;
77055;SDS011;67471;44.918;8.614;2024-01-10T08:50:28;17.00;;;8.80;;
77055;SDS011;67471;44.918;8.614;2024-01-10T08:53:32;15.85;;;8.48;;
77055;SDS011;67471;44.918;8.614;2024-01-10T08:56:36;14.48;;;7.57;;
77055;SDS011;67471;44.918;8.614;2024-01-10T08:59:43;17.40;;;8.60;;
77055;SDS011;67471;44.918;8.614;2024-01-10T09:02:47;19.85;;;8.73;;
77055;SDS011;67471;44.918;8.614;2024-01-10T09:05:50;15.57;;;8.55;;
77055;SDS011;67471;44.918;8.614;2024-01-10T09:08:54;16.23;;;7.93;;
77055;SDS011;67471;44.918;8.614;2024-01-10T09:11:57;15.32;;;7.45;;
77055;SDS011;67471;44.918;8.614;2024-01-10T09:15:01;16.05;;;7.88;;
77055;SDS011;67471;44.918;8.614;2024-01-10T09:18:06;16.73;;;8.43;;
77055;SDS011;67471;44.918;8.614;2024-01-10T09:21:09;15.27;;;8.27;;
77055;SDS011;67471;44.918;8.614;2024-01-10T09:24:13;16.75;;;7.90;;
77055;SDS011;67471;44.918;8.614;2024-01-10T09:27:17;15.18;;;7.63;;
77055;SDS011;67471;44.918;8.614;2024-01-10T09:30:22;15.93;;;7.82;;
77055;SDS011;67471;44.918;8.614;2024-01-10T09:33:27;18.63;;;8.65;;
77055;SDS011;67471;44.918;8.614;2024-01-10T09:36:30;13.38;;;7.97;;
77055;SDS011;67471;44.918;8.614;2024-01-10T09:39:34;16.25;;;7.93;;
77055;SDS011;67471;44.918;8.614;2024-01-10T09:42:38;16.35;;;7.90;;
77055;SDS011;67471;44.918;8.614;2024-01-10T09:45:43;14.07;;;7.72;;
77055;SDS011;67471;44.918;8.614;2024-01-10T09:48:51;15.45;;;8.00;;
77055;SDS011;67471;44.918;8.614;2024-01-10T09:51:58;14.85;;;7.25;;
77055;SDS011;67471;44.918;8.614;2024-01-10T09:55:04;15.32;;;7.40;;
77055;SDS011;67471;44.918;8.614;2024-01-10T09:58:08;15.57;;;8.43;;
77055;SDS011;67471;44.918;8.614;2024-01-10T10:01:13;17.60;;;8.20;;
77055;SDS011;67471;44.918;8.614;2024-01-10T10:04:17;13.65;;;8.30;;
77055;SDS011;67471;44.918;8.614;2024-01-10T10:07:23;19.45;;;8.68;;
77055;SDS011;67471;44.918;8.614;2024-01-10T10:10:27;15.88;;;8.45;;
77055;SDS011;67471;44.918;8.614;2024-01-10T10:13:31;15.38;;;9.05;;
77055;SDS011;67471;44.918;8.614;2024-01-10T10:16:35;20.58;;;8.77;;
77055;SDS011;67471;44.918;8.614;2024-01-10T10:19:39;38.45;;;20.10;;
77055;SDS011;67471;44.918;8.614;2024-01-10T10:22:50;18.05;;;10.40;;
77055;SDS011;67471;44.918;8.614;2024-01-10T10:29:16;19.27;;;9.95;;
77055;SDS011;67471;44.918;8.614;2024-01-10T10:32:21;18.38;;;9.38;;
77055;SDS011;67471;44.918;8.614;2024-01-10T10:35:25;22.67;;;10.38;;
77055;SDS011;67471;44.918;8.614;2024-01-10T10:38:29;18.00;;;9.52;;
77055;SDS011;67471;44.918;8.614;2024-01-10T10:41:33;17.15;;;9.00;;
77055;SDS011;67471;44.918;8.614;2024-01-10T10:44:38;16.65;;;9.20;;
77055;SDS011;67471;44.918;8.614;2024-01-10T10:47:45;21.90;;;9.48;;
77055;SDS011;67471;44.918;8.614;2024-01-10T10:54:05;15.80;;;8.93;;
77055;SDS011;67471;44.918;8.614;2024-01-10T10:57:09;23.00;;;9.75;;
77055;SDS011;67471;44.918;8.614;2024-01-10T11:00:14;15.02;;;9.27;;
77055;SDS011;67471;44.918;8.614;2024-01-10T11:03:18;16.98;;;8.73;;
77055;SDS011;67471;44.918;8.614;2024-01-10T11:06:24;17.75;;;7.97;;
77055;SDS011;67471;44.918;8.614;2024-01-10T11:09:28;16.25;;;8.63;;
77055;SDS011;67471;44.918;8.614;2024-01-10T11:13:20;19.63;;;8.55;;
77055;SDS011;67471;44.918;8.614;2024-01-10T11:26:32;15.25;;;7.35;;
77055;SDS011;67471;44.918;8.614;2024-01-10T11:29:37;15.02;;;7.75;;
77055;SDS011;67471;44.918;8.614;2024-01-10T11:32:43;21.33;;;10.07;;
77055;SDS011;67471;44.918;8.614;2024-01-10T11:39:11;16.27;;;8.35;;
77055;SDS011;67471;44.918;8.614;2024-01-10T11:42:23;13.43;;;8.38;;
77055;SDS011;67471;44.918;8.614;2024-01-10T11:45:50;16.15;;;8.85;;
77055;SDS011;67471;44.918;8.614;2024-01-10T11:48:55;17.27;;;8.90;;
77055;SDS011;67471;44.918;8.614;2024-01-10T11:51:59;16.42;;;8.75;;
77055;SDS011;67471;44.918;8.614;2024-01-10T11:55:04;17.02;;;9.00;;
77055;SDS011;67471;44.918;8.614;2024-01-10T11:58:10;15.95;;;8.15;;
77055;SDS011;67471;44.918;8.614;2024-01-10T12:01:14;16.13;;;9.52;;
77055;SDS011;67471;44.918;8.614;2024-01-10T12:04:18;16.75;;;8.75;;
77055;SDS011;67471;44.918;8.614;2024-01-10T12:07:22;23.60;;;10.00;;
77055;SDS011;67471;44.918;8.614;2024-01-10T12:10:27;17.30;;;9.60;;
77055;SDS011;67471;44.918;8.614;2024-01-10T12:13:31;15.18;;;9.18;;
77055;SDS011;67471;44.918;8.614;2024-01-10T12:16:35;19.67;;;8.52;;
77055;SDS011;67471;44.918;8.614;2024-01-10T12:19:39;14.38;;;7.28;;
77055;SDS011;67471;44.918;8.614;2024-01-10T12:22:44;14.70;;;8.57;;
77055;SDS011;67471;44.918;8.614;2024-01-10T12:25:48;15.95;;;8.13;;
77055;SDS011;67471;44.918;8.614;2024-01-10T12:28:56;17.02;;;9.75;;
77055;SDS011;67471;44.918;8.614;2024-01-10T12:32:00;14.75;;;8.45;;
77055;SDS011;67471;44.918;8.614;2024-01-10T12:35:04;18.45;;;8.85;;
77055;SDS011;67471;44.918;8.614;2024-01-10T12:38:12;17.73;;;8.65;;
77055;SDS011;67471;44.918;8.614;2024-01-10T12:41:16;16.08;;;8.38;;
77055;SDS011;67471;44.918;8.614;2024-01-10T12:44:22;16.52;;;9.35;;
77055;SDS011;67471;44.918;8.614;2024-01-10T12:47:25;13.70;;;8.95;;
77055;SDS011;67471;44.918;8.614;2024-01-10T12:50:29;18.38;;;8.73;;
77055;SDS011;67471;44.918;8.614;2024-01-10T12:53:34;16.90;;;9.30;;
77055;SDS011;67471;44.918;8.614;2024-01-10T12:56:38;17.67;;;9.57;;
77055;SDS011;67471;44.918;8.614;2024-01-10T12:59:42;17.98;;;10.15;;
77055;SDS011;67471;44.918;8.614;2024-01-10T13:02:46;17.80;;;10.32;;
77055;SDS011;67471;44.918;8.614;2024-01-10T13:05:50;17.55;;;9.23;;
77055;SDS011;67471;44.918;8.614;2024-01-10T13:08:53;17.15;;;9.55;;
77055;SDS011;67471;44.918;8.614;2024-01-10T13:11:58;20.63;;;10.35;;
77055;SDS011;67471;44.918;8.614;2024-01-10T13:15:02;18.75;;;10.30;;
77055;SDS011;67471;44.918;8.614;2024-01-10T13:18:06;19.17;;;10.52;;
77055;SDS011;67471;44.918;8.614;2024-01-10T13:21:13;22.42;;;12.02;;
77055;SDS011;67471;44.918;8.614;2024-01-10T13:24:16;22.30;;;12.65;;
77055;SDS011;67471;44.918;8.614;2024-01-10T13:27:20;17.83;;;10.35;;
77055;SDS011;67471;44.918;8.614;2024-01-10T13:30:24;19.80;;;11.05;;
77055;SDS011;67471;44.918;8.614;2024-01-10T13:33:27;19.20;;;10.50;;
77055;SDS011;67471;44.918;8.614;2024-01-10T13:36:32;20.92;;;10.95;;
77055;SDS011;67471;44.918;8.614;2024-01-10T13:39:36;20.58;;;11.80;;
77055;SDS011;67471;44.918;8.614;2024-01-10T13:42:40;17.27;;;10.32;;
77055;SDS011;67471;44.918;8.614;2024-01-10T13:45:45;17.90;;;10.07;;
77055;SDS011;67471;44.918;8.614;2024-01-10T13:48:49;20.13;;;10.43;;
77055;SDS011;67471;44.918;8.614;2024-01-10T13:51:52;19.10;;;10.57;;
77055;SDS011;67471;44.918;8.614;2024-01-10T13:54:56;19.50;;;10.93;;
77055;SDS011;67471;44.918;8.614;2024-01-10T13:58:00;22.42;;;10.95;;
77055;SDS011;67471;44.918;8.614;2024-01-10T14:01:04;18.63;;;9.73;;
77055;SDS011;67471;44.918;8.614;2024-01-10T14:04:08;18.92;;;10.55;;
77055;SDS011;67471;44.918;8.614;2024-01-10T14:07:11;18.60;;;9.93;;
77055;SDS011;67471;44.918;8.614;2024-01-10T14:10:15;23.00;;;10.95;;
77055;SDS011;67471;44.918;8.614;2024-01-10T14:13:19;17.65;;;10.65;;
77055;SDS011;67471;44.918;8.614;2024-01-10T14:16:23;19.27;;;9.95;;
77055;SDS011;67471;44.918;8.614;2024-01-10T14:19:27;21.88;;;11.48;;
77055;SDS011;67471;44.918;8.614;2024-01-10T14:22:31;20.02;;;9.75;;
77055;SDS011;67471;44.918;8.614;2024-01-10T14:25:35;17.80;;;9.90;;
77055;SDS011;67471;44.918;8.614;2024-01-10T14:28:38;19.20;;;10.25;;
77055;SDS011;67471;44.918;8.614;2024-01-10T14:31:42;17.48;;;9.57;;
77055;SDS011;67471;44.918;8.614;2024-01-10T14:34:46;17.63;;;9.05;;
77055;SDS011;67471;44.918;8.614;2024-01-10T14:37:50;15.10;;;8.68;;
77055;SDS011;67471;44.918;8.614;2024-01-10T14:40:53;17.08;;;9.82;;
77055;SDS011;67471;44.918;8.614;2024-01-10T14:43:57;18.65;;;9.30;;
77055;SDS011;67471;44.918;8.614;2024-01-10T14:47:01;15.65;;;8.10;;
77055;SDS011;67471;44.918;8.614;2024-01-10T14:50:06;16.02;;;8.80;;
77055;SDS011;67471;44.918;8.614;2024-01-10T14:53:10;16.92;;;9.45;;
77055;SDS011;67471;44.918;8.614;2024-01-10T14:56:13;18.45;;;9.07;;
77055;SDS011;67471;44.918;8.614;2024-01-10T14:59:17;17.50;;;9.18;;
77055;SDS011;67471;44.918;8.614;2024-01-10T15:02:21;16.27;;;8.45;;
77055;SDS011;67471;44.918;8.614;2024-01-10T15:05:25;20.30;;;9.73;;
77055;SDS011;67471;44.918;8.614;2024-01-10T15:08:29;20.92;;;10.63;;
77055;SDS011;67471;44.918;8.614;2024-01-10T15:11:33;17.45;;;9.38;;
77055;SDS011;67471;44.918;8.614;2024-01-10T15:14:37;17.52;;;9.38;;
77055;SDS011;67471;44.918;8.614;2024-01-10T15:17:43;16.02;;;9.32;;
77055;SDS011;67471;44.918;8.614;2024-01-10T15:20:47;15.77;;;8.68;;
77055;SDS011;67471;44.918;8.614;2024-01-10T15:23:51;16.85;;;8.23;;
77055;SDS011;67471;44.918;8.614;2024-01-10T15:26:56;16.65;;;9.68;;
77055;SDS011;67471;44.918;8.614;2024-01-10T15:30:04;17.75;;;9.63;;
77055;SDS011;67471;44.918;8.614;2024-01-10T15:33:08;21.33;;;10.35;;
77055;SDS011;67471;44.918;8.614;2024-01-10T15:36:14;21.42;;;9.63;;
77055;SDS011;67471;44.918;8.614;2024-01-10T15:39:18;20.77;;;10.85;;
77055;SDS011;67471;44.918;8.614;2024-01-10T15:42:27;19.52;;;9.82;;
77055;SDS011;67471;44.918;8.614;2024-01-10T15:45:31;18.55;;;9.02;;
77055;SDS011;67471;44.918;8.614;2024-01-10T15:48:36;18.58;;;8.75;;
77055;SDS011;67471;44.918;8.614;2024-01-10T15:51:40;18.98;;;8.93;;
77055;SDS011;67471;44.918;8.614;2024-01-10T15:54:44;14.95;;;8.82;;
77055;SDS011;67471;44.918;8.614;2024-01-10T15:57:48;16.13;;;9.40;;
77055;SDS011;67471;44.918;8.614;2024-01-10T16:00:52;16.38;;;8.43;;
77055;SDS011;67471;44.918;8.614;2024-01-10T16:03:56;19.00;;;10.45;;
77055;SDS011;67471;44.918;8.614;2024-01-10T16:07:00;17.20;;;8.68;;
77055;SDS011;67471;44.918;8.614;2024-01-10T16:10:04;17.10;;;8.43;;
77055;SDS011;67471;44.918;8.614;2024-01-10T16:13:07;17.33;;;8.35;;
77055;SDS011;67471;44.918;8.614;2024-01-10T16:16:11;15.15;;;8.23;;
77055;SDS011;67471;44.918;8.614;2024-01-10T16:19:15;17.17;;;8.88;;
77055;SDS011;67471;44.918;8.614;2024-01-10T16:22:19;20.23;;;11.98;;
77055;SDS011;67471;44.918;8.614;2024-01-10T16:25:22;20.55;;;11.68;;
77055;SDS011;67471;44.918;8.614;2024-01-10T16:28:26;19.58;;;10.20;;
77055;SDS011;67471;44.918;8.614;2024-01-10T16:31:30;17.23;;;9.30;;
77055;SDS011;67471;44.918;8.614;2024-01-10T16:34:34;15.30;;;8.35;;
77055;SDS011;67471;44.918;8.614;2024-01-10T16:37:38;15.40;;;8.43;;
77055;SDS011;67471;44.918;8.614;2024-01-10T16:40:42;17.73;;;8.80;;
77055;SDS011;67471;44.918;8.614;2024-01-10T16:43:45;19.50;;;8.93;;
77055;SDS011;67471;44.918;8.614;2024-01-10T16:46:49;17.10;;;8.80;;
77055;SDS011;67471;44.918;8.614;2024-01-10T16:49:53;23.15;;;9.65;;
77055;SDS011;67471;44.918;8.614;2024-01-10T16:52:57;17.40;;;9.02;;
77055;SDS011;67471;44.918;8.614;2024-01-10T16:56:01;15.93;;;8.38;;
77055;SDS011;67471;44.918;8.614;2024-01-10T16:59:04;22.05;;;9.65;;
77055;SDS011;67471;44.918;8.614;2024-01-10T17:02:09;15.00;;;8.40;;
77055;SDS011;67471;44.918;8.614;2024-01-10T17:05:13;22.48;;;9.18;;
77055;SDS011;67471;44.918;8.614;2024-01-10T17:08:16;14.95;;;8.77;;
77055;SDS011;67471;44.918;8.614;2024-01-10T17:11:20;18.05;;;9.85;;
77055;SDS011;67471;44.918;8.614;2024-01-10T17:14:24;19.70;;;8.93;;
77055;SDS011;67471;44.918;8.614;2024-01-10T17:17:28;45.67;;;20.38;;
77055;SDS011;67471;44.918;8.614;2024-01-10T17:20:32;38.78;;;21.17;;
77055;SDS011;67471;44.918;8.614;2024-01-10T17:23:37;23.55;;;12.80;;
77055;SDS011;67471;44.918;8.614;2024-01-10T17:26:40;16.40;;;9.60;;
77055;SDS011;67471;44.918;8.614;2024-01-10T17:29:44;15.30;;;8.88;;
77055;SDS011;67471;44.918;8.614;2024-01-10T17:32:48;15.55;;;8.30;;
77055;SDS011;67471;44.918;8.614;2024-01-10T17:35:53;14.18;;;7.90;;
77055;SDS011;67471;44.918;8.614;2024-01-10T17:38:56;15.27;;;8.13;;
77055;SDS011;67471;44.918;8.614;2024-01-10T17:42:00;15.93;;;9.05;;
77055;SDS011;67471;44.918;8.614;2024-01-10T17:45:07;13.98;;;8.15;;
77055;SDS011;67471;44.918;8.614;2024-01-10T17:48:12;19.13;;;8.80;;
77055;SDS011;67471;44.918;8.614;2024-01-10T17:51:16;20.60;;;8.63;;
77055;SDS011;67471;44.918;8.614;2024-01-10T17:54:24;16.73;;;9.23;;
77055;SDS011;67471;44.918;8.614;2024-01-10T17:57:28;14.23;;;8.63;;
77055;SDS011;67471;44.918;8.614;2024-01-10T18:00:32;15.10;;;8.30;;
77055;SDS011;67471;44.918;8.614;2024-01-10T18:03:35;15.57;;;8.13;;
77055;SDS011;67471;44.918;8.614;2024-01-10T18:06:39;17.45;;;8.82;;
77055;SDS011;67471;44.918;8.614;2024-01-10T18:09:43;14.30;;;8.23;;
77055;SDS011;67471;44.918;8.614;2024-01-10T18:12:46;17.85;;;7.38;;
77055;SDS011;67471;44.918;8.614;2024-01-10T18:15:51;18.48;;;9.38;;
77055;SDS011;67471;44.918;8.614;2024-01-10T18:18:55;15.68;;;8.80;;
77055;SDS011;67471;44.918;8.614;2024-01-10T18:21:59;17.30;;;9.13;;
77055;SDS011;67471;44.918;8.614;2024-01-10T18:25:03;15.10;;;8.27;;
77055;SDS011;67471;44.918;8.614;2024-01-10T18:28:07;19.05;;;8.75;;
77055;SDS011;67471;44.918;8.614;2024-01-10T18:31:11;17.70;;;8.25;;
77055;SDS011;67471;44.918;8.614;2024-01-10T18:34:15;15.43;;;8.43;;